createdAt,value
2023-03-04T00:00:26.544Z,78.33
2023-03-04T00:03:13.392Z,78.27
2023-03-04T00:06:00.571Z,78.52
2023-03-04T00:08:47.533Z,78.05
2023-03-04T00:11:34.773Z,78.13
2023-03-04T00:14:21.803Z,78.35
2023-03-04T00:17:08.681Z,78.31
2023-03-04T00:19:55.830Z,77.99
2023-03-04T00:22:42.777Z,78.19
2023-03-04T00:25:29.747Z,78.31
2023-03-04T00:28:16.708Z,78.49
2023-03-04T00:31:03.600Z,78.06
2023-03-04T00:33:50.563Z,78.33
2023-03-04T00:36:37.718Z,78.08
2023-03-04T00:39:24.818Z,78.10
2023-03-04T00:42:11.738Z,78.22
2023-03-04T00:44:59.073Z,77.69
2023-03-04T00:47:46.148Z,78.06
2023-03-04T00:50:33.151Z,78.17
2023-03-04T00:53:20.405Z,78.24
2023-03-04T00:56:07.481Z,78.24
2023-03-04T00:58:54.535Z,78.17
2023-03-04T01:01:41.634Z,78.50
2023-03-04T01:04:29.292Z,78.15
2023-03-04T01:07:16.217Z,78.40
2023-03-04T01:10:03.062Z,77.74
2023-03-04T01:12:50.026Z,78.11
2023-03-04T01:15:37.042Z,78.25
2023-03-04T01:18:25.820Z,77.89
2023-03-04T01:21:12.882Z,78.36
2023-03-04T01:23:59.980Z,78.42
2023-03-04T01:26:46.889Z,78.56
2023-03-04T01:29:34.546Z,78.80
2023-03-04T01:32:23.104Z,78.09
2023-03-04T01:35:10.050Z,78.85
2023-03-04T01:37:57.182Z,78.41
2023-03-04T01:40:44.206Z,78.41
2023-03-04T01:43:41.002Z,78.76
2023-03-04T01:46:30.297Z,78.55
2023-03-04T01:49:18.792Z,78.38
2023-03-04T01:52:11.793Z,78.99
2023-03-04T01:54:59.229Z,78.83
2023-03-04T01:57:46.616Z,78.60
2023-03-04T02:00:39.771Z,78.73
2023-03-04T02:03:32.879Z,79.06
2023-03-04T02:06:20.067Z,78.70
2023-03-04T02:09:06.919Z,78.48
2023-03-04T02:11:56.028Z,78.60
2023-03-04T02:14:43.311Z,78.85
2023-03-04T02:17:32.512Z,79.18
2023-03-04T02:20:41.730Z,78.20
2023-03-04T02:24:17.363Z,79.14
2023-03-04T02:27:05.333Z,78.60
2023-03-04T02:29:52.818Z,79.27
2023-03-04T02:32:39.974Z,78.74
2023-03-04T02:35:34.280Z,79.16
2023-03-04T02:38:21.497Z,78.88
2023-03-04T02:41:11.971Z,78.44
2023-03-04T02:43:59.337Z,78.72
2023-03-04T02:46:47.628Z,79.05
2023-03-04T02:49:35.124Z,78.22
2023-03-04T02:52:24.133Z,79.06
2023-03-04T02:55:11.319Z,79.12
2023-03-04T02:57:58.446Z,79.12
2023-03-04T03:00:45.866Z,78.60
2023-03-04T03:03:33.410Z,78.49
2023-03-04T03:06:20.462Z,79.34
2023-03-04T03:09:07.419Z,78.61
2023-03-04T03:11:55.595Z,78.92
2023-03-04T03:14:43.111Z,78.58
2023-03-04T03:17:32.280Z,78.56
2023-03-04T03:20:19.456Z,79.12
2023-03-04T03:23:08.194Z,78.13
2023-03-04T03:25:56.025Z,78.46
2023-03-04T03:28:43.066Z,78.30
2023-03-04T03:31:30.059Z,78.88
2023-03-04T03:34:17.383Z,78.56
2023-03-04T03:37:04.381Z,79.09
2023-03-04T03:39:51.358Z,78.92
2023-03-04T03:42:38.291Z,78.54
2023-03-04T03:45:25.833Z,78.31
2023-03-04T03:48:16.098Z,78.08
2023-03-04T03:51:03.056Z,78.14
2023-03-04T03:53:49.990Z,78.98
2023-03-04T03:56:36.995Z,77.99
2023-03-04T03:59:23.985Z,78.44
2023-03-04T04:02:11.080Z,77.82
2023-03-04T04:04:58.178Z,78.78
2023-03-04T04:07:45.312Z,78.72
2023-03-04T04:10:32.323Z,77.87
2023-03-04T04:13:19.354Z,78.07
2023-03-04T04:16:06.386Z,78.43
2023-03-04T04:18:53.332Z,77.96
2023-03-04T04:21:40.528Z,78.65
2023-03-04T04:24:27.562Z,78.11
2023-03-04T04:27:14.490Z,78.46
2023-03-04T04:30:01.710Z,77.88
2023-03-04T04:32:48.735Z,78.10
2023-03-04T04:35:35.835Z,77.46
2023-03-04T04:38:22.949Z,78.05
2023-03-04T04:41:10.013Z,77.58
2023-03-04T04:43:57.086Z,77.22
2023-03-04T04:46:44.110Z,77.58
2023-03-04T04:49:31.294Z,77.62
2023-03-04T04:52:18.408Z,77.16
2023-03-04T04:55:05.346Z,76.95
2023-03-04T04:57:53.749Z,76.45
2023-03-04T05:00:41.038Z,76.53
2023-03-04T05:03:28.110Z,76.58
2023-03-04T05:06:15.066Z,76.41
2023-03-04T05:09:02.034Z,76.49
2023-03-04T05:11:48.981Z,77.27
2023-03-04T05:14:36.192Z,76.94
2023-03-04T05:17:23.734Z,75.64
2023-03-04T05:20:10.660Z,76.62
2023-03-04T05:22:57.836Z,76.54
2023-03-04T05:25:44.627Z,75.70
2023-03-04T05:28:35.165Z,75.46
2023-03-04T05:31:22.861Z,76.30
2023-03-04T05:34:10.233Z,75.34
2023-03-04T05:36:57.272Z,75.79
2023-03-04T05:39:44.312Z,75.55
2023-03-04T05:42:31.174Z,75.18
2023-03-04T05:45:18.251Z,75.13
2023-03-04T05:48:05.181Z,74.67
2023-03-04T05:50:53.170Z,74.85
2023-03-04T05:53:40.063Z,74.29
2023-03-04T05:56:31.766Z,75.22
2023-03-04T05:59:18.955Z,75.11
2023-03-04T06:02:06.881Z,74.24
2023-03-04T06:04:53.993Z,75.35
2023-03-04T06:07:40.866Z,73.95
2023-03-04T06:10:29.186Z,75.12
2023-03-04T06:13:16.222Z,73.78
2023-03-04T06:16:03.210Z,74.93
2023-03-04T06:18:50.313Z,74.78
2023-03-04T06:21:37.413Z,74.91
2023-03-04T06:24:24.725Z,73.71
2023-03-04T06:27:11.558Z,74.27
2023-03-04T06:29:58.518Z,73.17
2023-03-04T06:32:45.563Z,73.52
2023-03-04T06:35:33.494Z,74.33
2023-03-04T06:38:20.381Z,73.09
2023-03-04T06:41:07.654Z,74.14
2023-03-04T06:43:54.631Z,74.35
2023-03-04T06:46:41.726Z,73.91
2023-03-04T06:49:28.612Z,74.31
2023-03-04T06:52:15.741Z,74.27
2023-03-04T06:55:02.675Z,73.40
2023-03-04T06:57:49.887Z,74.19
2023-03-04T07:00:37.622Z,72.82
2023-03-04T07:03:24.929Z,72.79
2023-03-04T07:06:11.791Z,73.93
2023-03-04T07:08:58.849Z,73.85
2023-03-04T07:11:45.693Z,73.71
2023-03-04T07:14:32.642Z,73.23
2023-03-04T07:17:19.477Z,72.84
2023-03-04T07:20:06.625Z,73.29
2023-03-04T07:22:53.533Z,72.77
2023-03-04T07:25:40.619Z,73.39
2023-03-04T07:28:27.478Z,72.77
2023-03-04T07:31:14.797Z,72.98
2023-03-04T07:34:01.808Z,72.55
2023-03-04T07:36:49.132Z,73.31
2023-03-04T07:39:36.188Z,72.67
2023-03-04T07:42:23.372Z,73.27
2023-03-04T07:45:18.142Z,73.61
2023-03-04T07:48:05.238Z,73.44
2023-03-04T07:50:52.099Z,72.40
2023-03-04T07:53:39.215Z,72.40
2023-03-04T07:56:27.825Z,73.30
2023-03-04T07:59:15.537Z,72.67
2023-03-04T08:02:02.468Z,73.04
2023-03-04T08:04:49.769Z,73.32
2023-03-04T08:07:36.690Z,73.37
2023-03-04T08:10:24.318Z,72.26
2023-03-04T08:13:11.160Z,72.37
2023-03-04T08:16:02.539Z,73.03
2023-03-04T08:18:49.748Z,73.19
2023-03-04T08:21:41.674Z,72.62
2023-03-04T08:24:28.566Z,73.29
2023-03-04T08:27:15.712Z,73.16
2023-03-04T08:30:02.638Z,73.04
2023-03-04T08:32:49.873Z,72.69
2023-03-04T08:35:37.075Z,73.05
2023-03-04T08:38:24.126Z,73.37
2023-03-04T08:41:15.940Z,73.20
2023-03-04T08:44:04.122Z,72.45
2023-03-04T08:46:51.266Z,72.98
2023-03-04T08:49:38.473Z,73.19
2023-03-04T08:52:26.472Z,72.06
2023-03-04T08:55:13.555Z,72.34
2023-03-04T08:58:00.618Z,72.04
2023-03-04T09:00:48.111Z,73.31
2023-03-04T09:03:36.752Z,72.21
2023-03-04T09:06:25.107Z,72.48
2023-03-04T09:09:12.028Z,72.28
2023-03-04T09:11:59.130Z,72.52
2023-03-04T09:14:46.138Z,72.96
2023-03-04T09:17:33.204Z,72.23
2023-03-04T09:20:20.173Z,73.21
2023-03-04T09:23:07.342Z,72.76
2023-03-04T09:25:54.296Z,73.18
2023-03-04T09:28:41.281Z,73.41
2023-03-04T09:31:33.227Z,72.88
2023-03-04T09:34:20.542Z,72.85
2023-03-04T09:37:07.636Z,72.75
2023-03-04T09:39:54.758Z,71.91
2023-03-04T09:42:56.673Z,72.33
2023-03-04T09:46:01.746Z,73.08
2023-03-04T09:49:00.319Z,73.29
2023-03-04T09:52:19.120Z,72.53
2023-03-04T09:55:27.584Z,72.71
2023-03-04T09:58:23.190Z,73.42
2023-03-04T10:01:23.640Z,73.11
2023-03-04T10:04:19.271Z,72.86
2023-03-04T10:07:07.714Z,73.26
2023-03-04T10:10:22.784Z,73.47
2023-03-04T10:13:13.046Z,72.43
2023-03-04T10:16:02.943Z,73.22
2023-03-04T10:18:56.890Z,72.56
2023-03-04T10:21:51.971Z,73.18
2023-03-04T10:24:41.418Z,72.72
2023-03-04T10:27:35.965Z,73.29
2023-03-04T10:30:23.061Z,73.07
2023-03-04T10:33:09.974Z,72.82
2023-03-04T10:35:58.419Z,72.75
2023-03-04T10:38:45.807Z,72.46
2023-03-04T10:41:40.627Z,72.70
2023-03-04T10:44:30.293Z,72.57
2023-03-04T10:47:18.464Z,71.98
2023-03-04T10:50:14.926Z,73.06
2023-03-04T10:53:08.684Z,72.65
2023-03-04T10:56:04.304Z,72.23
2023-03-04T10:58:51.181Z,72.50
2023-03-04T11:01:38.321Z,72.35
2023-03-04T11:04:37.306Z,72.19
2023-03-04T11:07:34.088Z,72.28
2023-03-04T11:10:35.026Z,72.20
2023-03-04T11:13:37.796Z,72.14
2023-03-04T11:16:43.613Z,72.31
2023-03-04T11:19:38.246Z,72.57
2023-03-04T11:22:25.634Z,72.41
2023-03-04T11:25:19.544Z,71.80
2023-03-04T11:28:12.443Z,72.46
2023-03-04T11:31:11.034Z,72.51
2023-03-04T11:34:16.878Z,72.29
2023-03-04T11:37:38.314Z,72.05
2023-03-04T11:40:30.989Z,72.18
2023-03-04T11:43:27.471Z,72.16
2023-03-04T11:46:17.080Z,71.82
2023-03-04T11:49:25.860Z,72.10
2023-03-04T11:52:24.824Z,71.98
2023-03-04T11:55:50.424Z,71.67
2023-03-04T11:58:43.109Z,71.85
2023-03-04T12:01:52.893Z,70.74
2023-03-04T12:05:03.688Z,71.67
2023-03-04T12:08:09.544Z,70.64
2023-03-04T12:11:36.967Z,71.36
2023-03-04T12:14:54.741Z,71.19
2023-03-04T12:18:00.146Z,70.64
2023-03-04T12:21:10.822Z,70.48
2023-03-04T12:24:20.391Z,70.93
2023-03-04T12:27:24.326Z,69.81
2023-03-04T12:30:11.226Z,70.31
2023-03-04T12:33:26.828Z,69.83
2023-03-04T12:36:45.864Z,69.83
2023-03-04T12:39:51.262Z,70.06
2023-03-04T12:43:00.422Z,69.90
2023-03-04T12:46:09.509Z,70.05
2023-03-04T12:49:02.243Z,69.29
2023-03-04T12:52:10.505Z,68.92
2023-03-04T12:55:00.809Z,68.92
2023-03-04T12:57:48.553Z,68.54
2023-03-04T13:01:12.798Z,68.40
2023-03-04T13:04:37.734Z,68.40
2023-03-04T13:08:02.266Z,68.01
2023-03-04T13:10:49.978Z,68.32
2023-03-04T13:14:04.021Z,68.08
2023-03-04T13:17:02.008Z,68.99
2023-03-04T13:20:11.592Z,68.75
2023-03-04T13:22:58.530Z,68.79
2023-03-04T13:25:56.637Z,68.91
2023-03-04T13:28:45.303Z,67.77
2023-03-04T13:31:38.444Z,68.42
2023-03-04T13:34:25.423Z,67.72
2023-03-04T13:37:16.590Z,68.10
2023-03-04T13:40:03.573Z,68.09
2023-03-04T13:43:02.607Z,67.46
2023-03-04T13:45:57.092Z,68.20
2023-03-04T13:48:52.019Z,67.11
2023-03-04T13:51:43.001Z,67.32
2023-03-04T13:54:50.578Z,67.49
2023-03-04T13:57:40.645Z,66.59
2023-03-04T14:00:32.892Z,67.48
2023-03-04T14:03:33.767Z,66.91
2023-03-04T14:06:43.679Z,67.08
2023-03-04T14:09:36.101Z,66.56
2023-03-04T14:12:25.277Z,66.51
2023-03-04T14:15:15.048Z,67.64
2023-03-04T14:18:07.759Z,66.99
2023-03-04T14:21:00.069Z,67.72
2023-03-04T14:23:51.216Z,67.52
2023-03-04T14:26:38.296Z,66.06
2023-03-04T14:29:49.714Z,65.92
2023-03-04T14:32:36.772Z,65.84
2023-03-04T14:35:27.169Z,66.03
2023-03-04T14:38:14.013Z,67.37
2023-03-04T14:41:17.212Z,66.37
2023-03-04T14:44:26.551Z,65.80
2023-03-04T14:47:25.594Z,66.94
2023-03-04T14:50:12.753Z,66.03
2023-03-04T14:53:02.498Z,65.67
2023-03-04T14:55:49.383Z,65.69
2023-03-04T14:58:51.518Z,66.52
2023-03-04T15:01:49.187Z,66.01
2023-03-04T15:04:40.109Z,66.03
2023-03-04T15:07:36.177Z,66.08
2023-03-04T15:10:27.146Z,66.85
2023-03-04T15:13:17.003Z,66.43
2023-03-04T15:16:06.179Z,66.14
2023-03-04T15:18:53.657Z,66.71
2023-03-04T15:21:40.505Z,65.81
2023-03-04T15:24:29.328Z,65.71
2023-03-04T15:27:16.882Z,66.36
2023-03-04T15:30:04.386Z,66.08
2023-03-04T15:32:51.416Z,65.84
2023-03-04T15:35:40.179Z,66.60
2023-03-04T15:38:28.727Z,66.40
2023-03-04T15:41:16.272Z,67.14
2023-03-04T15:44:03.127Z,66.27
2023-03-04T15:46:50.006Z,67.44
2023-03-04T15:49:36.873Z,66.13
2023-03-04T15:52:25.794Z,67.36
2023-03-04T15:55:12.641Z,66.37
2023-03-04T15:57:59.603Z,66.87
2023-03-04T16:00:47.331Z,66.94
2023-03-04T16:03:39.789Z,67.39
2023-03-04T16:06:30.488Z,67.29
2023-03-04T16:09:18.906Z,66.72
2023-03-04T16:12:06.386Z,67.70
2023-03-04T16:14:53.271Z,67.35
2023-03-04T16:17:40.526Z,67.35
2023-03-04T16:20:27.744Z,67.87
2023-03-04T16:23:20.279Z,67.05
2023-03-04T16:26:09.580Z,68.03
2023-03-04T16:28:56.560Z,67.41
2023-03-04T16:31:43.343Z,67.48
2023-03-04T16:34:30.239Z,66.92
2023-03-04T16:37:17.051Z,67.55
2023-03-04T16:40:04.216Z,67.89
2023-03-04T16:42:51.076Z,67.80
2023-03-04T16:45:48.073Z,67.20
2023-03-04T16:48:35.665Z,67.27
2023-03-04T16:51:34.393Z,67.18
2023-03-04T16:54:21.331Z,67.58
2023-03-04T16:57:08.193Z,68.03
2023-03-04T16:59:55.105Z,67.39
2023-03-04T17:02:43.276Z,67.33
2023-03-04T17:05:41.297Z,67.40
2023-03-04T17:08:28.360Z,67.07
2023-03-04T17:11:15.198Z,67.61
2023-03-04T17:14:02.060Z,67.52
2023-03-04T17:16:48.998Z,67.93
2023-03-04T17:19:37.369Z,67.99
2023-03-04T17:22:24.402Z,67.81
2023-03-04T17:25:11.407Z,67.97
2023-03-04T17:27:58.512Z,67.49
2023-03-04T17:30:45.312Z,68.03
2023-03-04T17:33:32.185Z,68.05
2023-03-04T17:36:19.119Z,67.96
2023-03-04T17:39:06.605Z,68.02
2023-03-04T17:41:53.783Z,67.76
2023-03-04T17:44:40.572Z,68.20
2023-03-04T17:47:27.938Z,68.00
2023-03-04T17:50:14.819Z,68.27
2023-03-04T17:53:01.779Z,68.04
2023-03-04T17:55:48.650Z,68.18
2023-03-04T17:58:16.126Z,68.09
2023-03-04T18:00:43.173Z,67.97
2023-03-04T18:03:12.826Z,68.16
2023-03-04T18:05:40.269Z,68.33
2023-03-04T18:08:07.679Z,68.02
2023-03-04T18:10:55.047Z,68.17
2023-03-04T18:13:41.862Z,68.08
2023-03-04T18:16:29.760Z,68.27
2023-03-04T18:19:18.889Z,67.95
2023-03-04T18:22:05.730Z,68.03
2023-03-04T18:24:52.788Z,68.54
2023-03-04T18:27:39.642Z,68.65
2023-03-04T18:30:31.695Z,68.00
2023-03-04T18:33:21.873Z,68.41
2023-03-04T18:36:09.221Z,68.23
2023-03-04T18:38:56.288Z,68.63
2023-03-04T18:41:43.171Z,68.30
2023-03-04T18:44:30.684Z,68.26
2023-03-04T18:47:18.240Z,68.59
2023-03-04T18:50:06.899Z,68.34
2023-03-04T18:52:54.374Z,68.21
2023-03-04T18:55:42.707Z,68.79
2023-03-04T18:58:29.912Z,68.36
